createdAt,value
2018-12-02T00:00:35.423Z,74.31
2018-12-02T00:03:12.264Z,74.41
2018-12-02T00:05:46.380Z,75.07
2018-12-02T00:08:39.037Z,75.01
2018-12-02T00:16:36.758Z,74.26
2018-12-02T00:19:11.634Z,74.09
2018-12-02T00:21:45.432Z,74.64
2018-12-02T00:24:19.176Z,74.90
2018-12-02T00:26:52.981Z,74.32
2018-12-02T00:29:26.745Z,74.26
2018-12-02T00:32:00.525Z,74.22
2018-12-02T00:34:34.338Z,74.36
2018-12-02T00:37:09.661Z,74.21
2018-12-02T00:39:44.275Z,74.39
2018-12-02T00:42:18.004Z,74.64
2018-12-02T00:44:51.806Z,74.77
2018-12-02T00:47:25.933Z,74.80
2018-12-02T00:50:00.762Z,74.94
2018-12-02T00:52:35.327Z,74.70
2018-12-02T00:55:12.226Z,74.75
2018-12-02T00:57:45.967Z,74.46
2018-12-02T01:00:20.507Z,74.78
2018-12-02T01:02:55.631Z,75.10
2018-12-02T01:05:30.288Z,74.92
2018-12-02T01:08:04.106Z,74.88
2018-12-02T01:10:39.016Z,75.17
2018-12-02T01:13:13.540Z,75.11
2018-12-02T01:15:48.389Z,75.24
2018-12-02T01:18:22.181Z,75.10
2018-12-02T01:20:56.003Z,75.11
2018-12-02T01:23:30.089Z,75.36
2018-12-02T01:26:03.929Z,74.94
2018-12-02T01:28:37.744Z,74.79
2018-12-02T01:31:11.529Z,74.80
2018-12-02T01:33:45.365Z,74.72
2018-12-02T01:36:19.202Z,75.32
2018-12-02T01:38:53.690Z,75.20
2018-12-02T01:41:28.600Z,75.40
2018-12-02T01:44:02.366Z,75.64
2018-12-02T01:46:36.846Z,75.72
2018-12-02T01:49:10.934Z,75.53
2018-12-02T01:51:44.720Z,75.31
2018-12-02T01:54:19.263Z,75.23
2018-12-02T01:56:53.101Z,75.37
2018-12-02T01:59:27.284Z,75.68
2018-12-02T02:02:01.504Z,75.51
2018-12-02T02:04:35.583Z,75.73
2018-12-02T02:07:09.330Z,75.28
2018-12-02T02:09:43.191Z,75.54
2018-12-02T02:12:16.958Z,75.53
2018-12-02T02:14:50.768Z,75.13
2018-12-02T02:17:24.631Z,75.46
2018-12-02T02:19:59.155Z,75.32
2018-12-02T02:22:33.665Z,75.19
2018-12-02T02:27:59.046Z,76.03
2018-12-02T02:30:33.075Z,75.89
2018-12-02T02:33:07.125Z,75.32
2018-12-02T02:35:41.673Z,75.41
2018-12-02T02:38:15.451Z,75.53
2018-12-02T02:40:49.989Z,76.02
2018-12-02T02:43:23.798Z,75.47
2018-12-02T02:45:57.938Z,75.71
2018-12-02T02:48:31.853Z,75.38
2018-12-02T02:51:05.680Z,75.67
2018-12-02T02:53:39.421Z,75.91
2018-12-02T02:56:13.965Z,75.88
2018-12-02T02:58:47.753Z,76.00
2018-12-02T03:01:22.539Z,75.73
2018-12-02T03:03:56.304Z,75.94
2018-12-02T03:06:30.536Z,75.52
2018-12-02T03:09:05.076Z,75.63
2018-12-02T03:11:38.913Z,75.40
2018-12-02T03:14:12.778Z,75.64
2018-12-02T03:16:46.597Z,75.85
2018-12-02T03:19:20.722Z,76.01
2018-12-02T03:21:54.897Z,76.21
2018-12-02T03:24:29.030Z,76.05
2018-12-02T03:27:02.853Z,75.71
2018-12-02T03:29:36.665Z,75.95
2018-12-02T03:32:10.466Z,75.68
2018-12-02T03:34:44.223Z,75.81
2018-12-02T03:37:18.133Z,75.50
2018-12-02T03:39:51.954Z,75.42
2018-12-02T03:42:25.822Z,75.73
2018-12-02T03:44:59.622Z,75.54
2018-12-02T03:47:33.793Z,75.47
2018-12-02T03:50:17.547Z,75.67
2018-12-02T03:52:47.897Z,75.78
2018-12-02T03:55:21.678Z,75.78
2018-12-02T03:57:55.414Z,76.59
2018-12-02T04:00:29.931Z,75.77
2018-12-02T04:03:03.710Z,76.11
2018-12-02T04:05:37.505Z,76.06
2018-12-02T04:10:52.806Z,75.78
2018-12-02T04:16:08.410Z,75.57
2018-12-02T04:18:42.254Z,76.21
2018-12-02T04:21:16.763Z,76.16
2018-12-02T04:23:51.318Z,75.89
2018-12-02T04:26:26.169Z,75.82
2018-12-02T04:28:59.942Z,76.26
2018-12-02T04:31:34.477Z,76.05
2018-12-02T04:34:09.009Z,75.94
2018-12-02T04:36:42.818Z,75.81
2018-12-02T04:39:16.640Z,76.18
2018-12-02T04:41:50.456Z,76.79
2018-12-02T04:44:24.325Z,76.32
2018-12-02T04:46:58.848Z,76.31
2018-12-02T04:49:32.644Z,76.47
2018-12-02T04:52:07.269Z,76.91
2018-12-02T04:54:42.538Z,76.46
2018-12-02T04:57:16.368Z,76.47
2018-12-02T04:59:50.172Z,76.78
2018-12-02T05:02:25.604Z,76.85
2018-12-02T05:04:59.384Z,76.67
2018-12-02T05:07:33.918Z,76.76
2018-12-02T05:10:16.940Z,76.77
2018-12-02T05:12:51.283Z,76.85
2018-12-02T05:15:25.416Z,76.53
2018-12-02T05:17:59.231Z,76.48
2018-12-02T05:20:33.855Z,76.32
2018-12-02T05:23:07.982Z,76.97
2018-12-02T05:25:41.802Z,76.89
2018-12-02T05:31:02.017Z,76.68
2018-12-02T05:33:36.460Z,76.67
2018-12-02T05:36:10.250Z,76.33
2018-12-02T05:38:44.777Z,76.61
2018-12-02T05:41:19.620Z,77.02
2018-12-02T05:43:53.435Z,76.70
2018-12-02T05:46:27.243Z,76.40
2018-12-02T05:49:01.332Z,76.49
2018-12-02T05:51:35.230Z,76.67
2018-12-02T05:54:09.779Z,76.67
2018-12-02T05:56:43.586Z,76.28
2018-12-02T05:59:17.487Z,76.58
2018-12-02T06:01:51.985Z,76.41
2018-12-02T06:07:07.787Z,76.34
2018-12-02T06:09:41.662Z,76.38
2018-12-02T06:12:15.467Z,76.26
2018-12-02T06:14:49.266Z,76.68
2018-12-02T06:17:23.093Z,76.56
2018-12-02T06:19:56.870Z,76.53
2018-12-02T06:22:30.677Z,76.81
2018-12-02T06:25:04.475Z,76.51
2018-12-02T06:27:38.698Z,76.36
2018-12-02T06:30:31.751Z,76.20
2018-12-02T06:33:06.689Z,76.86
2018-12-02T06:35:40.534Z,76.93
2018-12-02T06:38:14.293Z,76.85
2018-12-02T06:40:48.302Z,77.05
2018-12-02T06:43:22.783Z,76.87
2018-12-02T06:45:56.590Z,76.83
2018-12-02T06:48:30.423Z,76.54
2018-12-02T06:51:04.175Z,76.36
2018-12-02T06:53:39.058Z,76.20
2018-12-02T07:03:01.455Z,76.43
2018-12-02T07:08:15.600Z,76.57
2018-12-02T07:10:50.121Z,77.11
2018-12-02T07:13:24.653Z,77.03
2018-12-02T07:15:59.174Z,76.80
2018-12-02T07:18:37.554Z,77.13
2018-12-02T07:21:15.713Z,77.11
2018-12-02T07:29:15.045Z,77.18
2018-12-02T07:31:49.146Z,77.25
2018-12-02T07:37:23.052Z,77.17
2018-12-02T07:40:30.948Z,77.51
2018-12-02T07:43:06.282Z,77.36
2018-12-02T07:45:40.084Z,77.75
2018-12-02T07:50:55.389Z,77.41
2018-12-02T07:53:29.154Z,77.60
2018-12-02T07:56:02.965Z,77.86
2018-12-02T07:58:37.051Z,77.82
2018-12-02T08:03:53.067Z,77.91
2018-12-02T08:06:27.602Z,77.48
2018-12-02T08:09:01.393Z,77.31
2018-12-02T08:11:36.383Z,76.94
2018-12-02T08:14:10.192Z,77.01
2018-12-02T08:16:43.996Z,76.92
2018-12-02T08:19:17.809Z,77.20
2018-12-02T08:21:51.569Z,77.54
2018-12-02T08:24:25.429Z,77.29
2018-12-02T08:26:59.257Z,77.35
2018-12-02T08:29:33.808Z,77.17
2018-12-02T08:32:07.786Z,77.11
2018-12-02T08:34:42.311Z,77.49
2018-12-02T08:37:16.841Z,77.07
2018-12-02T08:39:51.381Z,76.98
2018-12-02T08:42:25.142Z,77.40
2018-12-02T08:44:58.919Z,77.44
2018-12-02T08:47:32.714Z,77.32
2018-12-02T08:50:09.426Z,77.14
2018-12-02T08:52:43.275Z,77.37
2018-12-02T08:55:21.675Z,77.68
2018-12-02T08:57:56.396Z,77.86
2018-12-02T09:00:30.996Z,77.70
2018-12-02T09:03:08.557Z,77.81
2018-12-02T09:05:42.654Z,77.68
2018-12-02T09:08:16.516Z,77.44
2018-12-02T09:10:50.279Z,77.34
2018-12-02T09:13:24.100Z,77.46
2018-12-02T09:15:57.851Z,77.61
2018-12-02T09:18:32.384Z,77.57
2018-12-02T09:21:07.130Z,77.48
2018-12-02T09:23:40.974Z,77.72
2018-12-02T09:26:14.783Z,77.72
2018-12-02T09:28:49.358Z,77.84
2018-12-02T09:31:23.150Z,77.68
2018-12-02T09:33:57.985Z,77.81
2018-12-02T09:36:32.497Z,77.61
2018-12-02T09:39:09.853Z,77.32
2018-12-02T09:41:43.665Z,77.53
2018-12-02T09:44:18.017Z,77.23
2018-12-02T09:49:33.967Z,77.72
2018-12-02T09:52:08.118Z,77.91
2018-12-02T10:00:19.856Z,77.76
2018-12-02T10:05:35.142Z,77.84
2018-12-02T10:08:10.402Z,77.93
2018-12-02T10:10:45.326Z,78.17
2018-12-02T10:16:04.712Z,78.05
2018-12-02T10:18:38.506Z,77.70
2018-12-02T10:21:12.294Z,77.96
2018-12-02T10:23:46.082Z,77.58
2018-12-02T10:29:04.505Z,77.56
2018-12-02T10:31:39.031Z,77.53
2018-12-02T10:34:13.694Z,77.60
2018-12-02T10:36:47.586Z,77.57
2018-12-02T10:39:21.533Z,77.83
2018-12-02T10:44:38.521Z,77.50
2018-12-02T10:47:12.293Z,77.51
2018-12-02T10:52:27.510Z,77.28
2018-12-02T10:55:02.079Z,77.59
2018-12-02T11:00:36.234Z,77.83
2018-12-02T11:03:10.050Z,78.32
2018-12-02T11:08:26.633Z,77.96
2018-12-02T11:11:00.430Z,77.93
2018-12-02T11:13:34.221Z,77.74
2018-12-02T11:16:09.620Z,78.09
2018-12-02T11:18:43.452Z,78.35
2018-12-02T11:21:17.247Z,78.21
2018-12-02T11:23:51.021Z,78.12
2018-12-02T11:26:24.808Z,78.27
2018-12-02T11:28:58.593Z,78.36
2018-12-02T11:31:33.147Z,78.37
2018-12-02T11:34:07.284Z,78.35
2018-12-02T11:39:23.639Z,78.00
2018-12-02T11:44:40.025Z,77.82
2018-12-02T11:49:56.254Z,77.56
2018-12-02T11:52:30.064Z,77.75
2018-12-02T11:55:03.890Z,77.55
2018-12-02T11:57:38.423Z,77.71
2018-12-02T12:03:20.400Z,77.63
2018-12-02T12:05:54.181Z,77.50
2018-12-02T12:11:10.174Z,77.87
2018-12-02T12:13:43.962Z,78.13
2018-12-02T12:16:17.760Z,77.85
2018-12-02T12:18:52.715Z,77.66
2018-12-02T12:21:26.461Z,77.66
2018-12-02T12:24:00.253Z,77.85
2018-12-02T12:26:34.050Z,77.73
2018-12-02T12:31:49.393Z,77.56
2018-12-02T12:37:03.496Z,77.40
2018-12-02T12:39:37.306Z,77.64
2018-12-02T12:42:11.080Z,77.36
2018-12-02T12:47:27.801Z,77.56
2018-12-02T12:50:02.329Z,77.49
2018-12-02T12:52:36.829Z,77.88
2018-12-02T12:57:54.430Z,77.10
2018-12-02T13:00:28.262Z,77.13
2018-12-02T13:05:48.306Z,76.39
2018-12-02T13:08:22.134Z,76.26
2018-12-02T13:10:55.942Z,76.36
2018-12-02T13:16:11.905Z,76.45
2018-12-02T13:18:45.694Z,76.40
2018-12-02T13:21:19.550Z,76.41
2018-12-02T13:26:44.009Z,76.30
2018-12-02T13:29:17.845Z,76.45
2018-12-02T13:31:51.794Z,76.25
2018-12-02T13:34:25.718Z,75.97
2018-12-02T13:39:41.826Z,75.69
2018-12-02T13:42:15.732Z,75.70
2018-12-02T13:44:49.550Z,76.67
2018-12-02T13:47:23.443Z,77.25
2018-12-02T13:49:57.315Z,77.44
2018-12-02T13:52:31.830Z,77.40
2018-12-02T13:55:07.406Z,77.45
2018-12-02T13:57:41.346Z,77.43
2018-12-02T14:06:04.242Z,77.01
2018-12-02T14:08:39.167Z,76.97
2018-12-02T14:11:11.846Z,77.20
2018-12-02T14:13:48.788Z,77.26
2018-12-02T14:19:39.949Z,76.94
2018-12-02T14:22:13.905Z,77.12
2018-12-02T14:25:02.617Z,76.92
2018-12-02T14:27:31.148Z,77.35
2018-12-02T14:30:04.920Z,77.40
2018-12-02T14:32:38.745Z,77.26
2018-12-02T14:37:54.017Z,77.28
2018-12-02T14:40:27.807Z,77.37
2018-12-02T14:45:43.789Z,76.96
2018-12-02T14:48:17.571Z,76.94
2018-12-02T14:50:51.365Z,76.81
2018-12-02T14:56:07.035Z,77.01
2018-12-02T14:58:40.822Z,77.13
2018-12-02T15:01:14.594Z,77.24
2018-12-02T15:03:48.391Z,77.61
2018-12-02T15:06:22.237Z,77.40
2018-12-02T15:08:56.333Z,77.65
2018-12-02T15:11:30.893Z,77.78
2018-12-02T15:14:04.966Z,77.71
2018-12-02T15:16:38.740Z,77.65
2018-12-02T15:19:14.509Z,77.86
2018-12-02T15:24:30.120Z,77.92
2018-12-02T15:27:04.718Z,78.15
2018-12-02T15:29:38.578Z,77.90
2018-12-02T15:32:13.081Z,77.85
2018-12-02T15:37:27.330Z,77.94
2018-12-02T15:40:01.130Z,78.03
2018-12-02T15:42:34.903Z,77.92
2018-12-02T15:45:13.367Z,77.90
2018-12-02T15:47:47.598Z,77.54
2018-12-02T15:50:26.202Z,77.72
2018-12-02T15:52:59.987Z,77.60
2018-12-02T15:55:35.625Z,77.85
2018-12-02T15:58:12.111Z,77.72
2018-12-02T16:00:47.692Z,77.62
2018-12-02T16:03:22.576Z,77.50
2018-12-02T16:05:56.526Z,77.98
2018-12-02T16:08:31.189Z,78.02
2018-12-02T16:11:05.579Z,78.15
2018-12-02T16:13:40.104Z,78.17
2018-12-02T16:16:14.029Z,78.19
2018-12-02T16:18:48.520Z,78.11
2018-12-02T16:21:23.020Z,78.51
2018-12-02T16:23:56.755Z,78.69
2018-12-02T16:26:31.325Z,78.51
2018-12-02T16:29:05.455Z,78.47
2018-12-02T16:31:39.276Z,78.41
2018-12-02T16:34:13.424Z,78.58
2018-12-02T16:39:27.462Z,78.72
2018-12-02T16:42:01.314Z,78.42
2018-12-02T16:44:35.170Z,78.59
2018-12-02T16:47:08.985Z,78.38
2018-12-02T16:49:42.808Z,78.51
2018-12-02T16:55:03.932Z,78.49
2018-12-02T17:00:26.853Z,78.53
2018-12-02T17:05:42.178Z,78.38
2018-12-02T17:08:16.013Z,78.30
2018-12-02T17:10:50.838Z,78.46
2018-12-02T17:16:07.077Z,78.54
2018-12-02T17:18:42.054Z,78.69
2018-12-02T17:21:14.717Z,78.54
2018-12-02T17:26:29.960Z,78.84
2018-12-02T17:29:05.058Z,78.69
2018-12-02T17:32:08.215Z,78.82
2018-12-02T17:37:26.765Z,78.94
2018-12-02T17:40:01.623Z,78.65
2018-12-02T17:42:35.374Z,78.94
2018-12-02T17:47:53.212Z,79.49
2018-12-02T17:50:27.033Z,79.39
2018-12-02T17:55:51.968Z,78.98
2018-12-02T17:58:26.494Z,78.93
2018-12-02T18:01:00.333Z,78.97
2018-12-02T18:06:17.454Z,78.93
2018-12-02T18:08:51.536Z,78.60
2018-12-02T18:11:26.058Z,78.61
2018-12-02T18:16:42.215Z,78.82
2018-12-02T18:19:16.590Z,79.40
2018-12-02T18:21:51.126Z,79.64
2018-12-02T18:27:07.109Z,79.39
2018-12-02T18:29:41.270Z,79.30
2018-12-02T18:32:15.065Z,79.35
2018-12-02T18:37:31.062Z,79.98
2018-12-02T18:40:05.623Z,79.76
2018-12-02T18:42:39.466Z,79.89
2018-12-02T18:47:54.682Z,79.79
2018-12-02T18:50:29.226Z,79.86
2018-12-02T18:53:03.062Z,79.72
2018-12-02T18:55:36.891Z,79.87
2018-12-02T18:58:11.018Z,79.75
2018-12-02T19:00:44.819Z,79.77
2018-12-02T19:03:21.334Z,79.87
2018-12-02T19:05:56.052Z,79.58
2018-12-02T19:08:30.099Z,79.38
2018-12-02T19:11:04.575Z,79.42
2018-12-02T19:13:43.619Z,79.26
2018-12-02T19:16:12.601Z,79.16
2018-12-02T19:18:48.984Z,78.95
2018-12-02T19:21:31.462Z,79.11
2018-12-02T19:24:05.278Z,79.28
2018-12-02T19:26:39.811Z,79.25
2018-12-02T19:29:13.640Z,78.99
2018-12-02T19:31:47.410Z,78.95
2018-12-02T19:34:21.172Z,78.98
2018-12-02T19:36:59.511Z,79.06
2018-12-02T19:39:33.370Z,79.00
2018-12-02T19:42:07.573Z,78.75
2018-12-02T19:44:41.445Z,78.86
2018-12-02T19:47:15.299Z,78.89
2018-12-02T19:49:49.079Z,78.81
2018-12-02T19:52:23.943Z,78.83
2018-12-02T19:54:58.168Z,78.62
2018-12-02T19:57:31.984Z,78.50
2018-12-02T20:02:49.141Z,78.39
2018-12-02T20:05:23.182Z,78.18
2018-12-02T20:08:03.106Z,78.11
2018-12-02T20:10:36.894Z,78.49
2018-12-02T20:13:18.988Z,78.45
2018-12-02T20:16:12.484Z,78.51
2018-12-02T20:18:46.302Z,78.80
2018-12-02T20:29:45.191Z,78.16
2018-12-02T20:32:19.355Z,78.39
2018-12-02T20:37:32.687Z,78.24
2018-12-02T20:40:11.270Z,78.26
2018-12-02T20:45:25.111Z,78.11
2018-12-02T20:47:59.660Z,78.25
2018-12-02T20:50:33.439Z,78.48
2018-12-02T20:55:49.438Z,78.26
2018-12-02T20:58:23.681Z,78.19
2018-12-02T21:00:57.470Z,78.31
2018-12-02T21:06:24.197Z,78.19
2018-12-02T21:08:58.046Z,77.97
2018-12-02T21:11:31.906Z,77.98
2018-12-02T21:16:47.148Z,77.84
2018-12-02T21:19:21.001Z,77.87
2018-12-02T21:21:54.823Z,78.72
2018-12-02T21:29:50.290Z,79.10
2018-12-02T21:32:24.939Z,79.03
2018-12-02T21:34:58.742Z,78.71
2018-12-02T21:37:33.278Z,78.75
2018-12-02T21:43:00.514Z,78.32
2018-12-02T21:48:21.108Z,78.62
2018-12-02T21:50:57.191Z,78.64
2018-12-02T21:56:13.175Z,78.90
2018-12-02T21:58:47.033Z,78.87
2018-12-02T22:01:21.869Z,79.31
2018-12-02T22:03:55.670Z,79.20
2018-12-02T22:09:15.657Z,79.12
2018-12-02T22:11:50.580Z,78.86
2018-12-02T22:14:25.847Z,78.45
2018-12-02T22:17:00.725Z,78.40
2018-12-02T22:22:16.925Z,78.71
2018-12-02T22:24:50.749Z,78.64
2018-12-02T22:27:24.521Z,78.47
2018-12-02T22:29:58.313Z,78.50
2018-12-02T22:32:32.137Z,78.64
2018-12-02T22:35:06.523Z,78.37
2018-12-02T22:37:41.473Z,78.70
2018-12-02T22:40:25.919Z,78.89
2018-12-02T22:43:00.448Z,78.68
2018-12-02T22:45:34.263Z,78.48
2018-12-02T22:48:08.285Z,78.36
2018-12-02T22:50:42.122Z,78.38
2018-12-02T22:53:16.181Z,78.60
2018-12-02T22:55:50.286Z,78.63
2018-12-02T22:58:24.879Z,78.48
2018-12-02T23:01:17.334Z,78.49
2018-12-02T23:06:33.522Z,79.39
2018-12-02T23:09:10.119Z,79.99
2018-12-02T23:11:43.924Z,79.85
2018-12-02T23:17:24.061Z,79.28
2018-12-02T23:19:57.849Z,79.52
2018-12-02T23:25:14.650Z,79.03
2018-12-02T23:27:49.361Z,79.09
2018-12-02T23:30:25.273Z,79.40
2018-12-02T23:32:59.100Z,79.18
2018-12-02T23:38:16.226Z,79.04
2018-12-02T23:40:50.047Z,79.29
2018-12-02T23:46:05.309Z,79.26
2018-12-02T23:48:39.137Z,79.37
2018-12-02T23:51:12.983Z,79.20
2018-12-02T23:53:46.839Z,79.33
2018-12-02T23:56:20.733Z,79.51
2018-12-02T23:58:54.821Z,79.58
